Goodview, Minnesota
Current Conditions -  °F | °C
As of 2:54 PM on Saturday 25 Oct 2014 (Local Time) from KONA Reporting Station
Clear Clear  
Wind Chill: 63°   Ceiling: Unl
Heat Index: 63°   Visibility: 10mi
Dew Point: 30°   Wind: 12mph
Humidity: 30%   Direction: 290°WNW
Pressure: 30.01"   Gusts: 17mph
Location:  43.9823°N, 91.6349°W
Report Text: KONA 251954Z AUTO 29010G15KT 10SM CLR 17/M01 A3001 RMK AO2
Loading
Personal Weather Stations






























Interactive Weather Map
Tropical Storm Tracking
New forecast layout! Learn more

10-Day Weather Forecast

Advertisements
Track Severe Weather on mobile